• Join FlightAware (Why Join?)
  • Login
  • US Flag 
01:59AM EDT


 

Airport Tracker/Info


-or-


 

Live Flight TrackerFlight Track Log ✈ UPS1295 ✈ 17-Sep-2013 ✈ KGSP - KSDF

Flight Track Log - Related Links

Times and Time Zones

All times are in EDT time to prevent confusion due to time zone crossing. See the UPS1295 flight status page for this flight to view local times or setup timezone preferences in your user account.

Time Position Orientation Groundspeed Altitude Reporting Facility
EDT Latitude Longitude Course Direction KTS MPH feet Rate Location/Type
11:24PM 35.0660 -82.0320 44° Northeast 308 354 10,800  Level FlightAware
11:25PM 35.1080 -81.9880 41° Northeast 355 409 11,800 1,740 Climbing FlightAware
11:25PM 35.1260 -81.9820 15° North 371 427 12,200 3,000 Climbing FlightAware
11:26PM 35.1770 -81.9940 349° North 391 450 13,800 3,600 Climbing FlightAware
11:26PM 35.1950 -82.0100 324° Northwest 398 458 14,600 900 Climbing FlightAware
11:27PM 35.2410 -82.0610 318° Northwest 398 458 14,600 2,580 Level FlightAware
11:27PM 35.3020 -82.1530 309° West 419 482 18,400 5,880 Climbing FlightAware
11:28PM 35.3262 -82.1794 318° Northwest 434 499 20,400 5,220 Climbing FlightAware ADS-B
11:28PM 35.3705 -82.2311 316° Northwest 443 510 22,000 2,940 Climbing FlightAware ADS-B
11:29PM 35.4660 -82.3390 317° Northwest 464 534 25,000 2,820 Climbing FlightAware
11:29PM 35.4824 -82.3583 316° Northwest 467 537 25,500 2,880 Climbing FlightAware ADS-B
11:30PM 35.5325 -82.4153 317° Northwest 473 544 27,000 2,700 Climbing FlightAware ADS-B
11:30PM 35.5820 -82.4719 317° Northwest 480 552 28,300 2,520 Climbing FlightAware ADS-B
11:31PM 35.6430 -82.5420 317° Northwest 472 543 29,900 1,440 Climbing FlightAware
11:31PM 35.6902 -82.5967 317° Northwest 467 537 30,000 60 Climbing FlightAware ADS-B
11:32PM 35.7394 -82.6536 317° Northwest 463 533 30,000  Level FlightAware ADS-B
11:32PM 35.7861 -82.7079 317° Northwest 463 533 30,000  Level FlightAware ADS-B
11:33PM 35.8380 -82.7690 316° Northwest 462 532 30,000  Level FlightAware
11:34PM 35.8937 -82.8328 317° Northwest 465 535 30,000  Level FlightAware ADS-B
11:34PM 35.9420 -82.8893 317° Northwest 466 536 30,000  Level FlightAware ADS-B
11:35PM 35.9898 -82.9449 317° Northwest 466 536 30,000  Level FlightAware ADS-B
11:36PM 36.0590 -83.0290 316° Northwest 465 535 30,000  Level FlightAware
11:36PM 36.0962 -83.0696 319° Northwest 466 536 30,000  Level FlightAware ADS-B
11:36PM 36.1475 -83.1298 317° Northwest 466 536 30,000  Level FlightAware ADS-B
11:37PM 36.1944 -83.1851 316° Northwest 466 536 30,000  Level FlightAware ADS-B
11:37PM 36.2460 -83.2460 316° Northwest 466 536 30,000  Level FlightAware
11:38PM 36.3006 -83.3104 316° Northwest 467 537 30,000  Level FlightAware ADS-B
11:38PM 36.3500 -83.3689 316° Northwest 467 537 30,000  Level FlightAware ADS-B
11:39PM 36.3975 -83.4251 316° Northwest 467 537 30,000  Level FlightAware ADS-B
11:40PM 36.4590 -83.4980 316° Northwest 466 536 30,000  Level FlightAware
11:40PM 36.5024 -83.5499 316° Northwest 466 536 30,000  Level FlightAware ADS-B
11:41PM 36.5514 -83.6084 316° Northwest 465 535 30,000  Level FlightAware ADS-B
11:41PM 36.6039 -83.6710 316° Northwest 465 535 30,000  Level FlightAware ADS-B
11:42PM 36.6490 -83.7260 316° Northwest 466 536 30,000 -180 Level FlightAware
11:42PM 36.7054 -83.7926 317° Northwest 465 535 29,800 -1,200 Descending FlightAware ADS-B
11:43PM 36.7489 -83.8450 316° Northwest 467 537 29,200 -1,140 Descending FlightAware ADS-B
11:43PM 36.7961 -83.9017 316° Northwest 465 535 28,800  Descending FlightAware ADS-B
11:44PM 36.8350 -83.9520 314° West 466 536 29,200 -960 Climbing FlightAware
11:44PM 36.9047 -84.0329 317° Northwest 463 533 27,700 -1,740 Descending FlightAware ADS-B
11:45PM 36.9548 -84.0937 316° Northwest 462 532 27,300 -900 Descending FlightAware ADS-B
11:46PM 37.0015 -84.1503 316° Northwest 461 531 26,800 1,440 Descending FlightAware ADS-B
11:46PM 37.0240 -84.1890 306° West 466 536 29,200 -840 Climbing FlightAware
11:47PM 37.1022 -84.2727 320° Northwest 459 528 25,900 -4,500 Descending FlightAware ADS-B
11:47PM 37.1536 -84.3354 316° Northwest 458 527 25,400 -1,020 Descending FlightAware ADS-B
11:48PM 37.2045 -84.3980 316° Northwest 455 524 24,800 -2,640 Descending FlightAware ADS-B
11:49PM 37.2982 -84.5122 316° Northwest 436 502 21,100 -3,900 Descending FlightAware ADS-B
11:49PM 37.3440 -84.5691 315° West 433 498 18,700 -3,240 Descending FlightAware ADS-B
11:51PM 37.4453 -84.6936 315° West 413 475 15,400 -2,640 Descending Indianapolis Center
11:52PM 37.5214 -84.7892 315° West 391 450 12,700 -2,220 Descending Indianapolis Center
11:53PM 37.5986 -84.8844 316° Northwest 388 447 11,000 -1,260 Descending Indianapolis Center
11:54PM 37.6575 -84.9589 315° West 304 350 10,200 -1,200 Descending Indianapolis Center
12:00AM 37.8900 -85.4620 315° West 271 312 2,800 -1,140 Descending FlightAware
12:00AM 37.9040 -85.4970 297° West 271 312 2,800  Level FlightAware
12:01AM 37.9400 -85.5490 311° West 242 278 2,800  Level FlightAware
12:01AM 37.9560 -85.5680 317° Northwest 237 273 2,800  Level FlightAware
12:02AM 37.9720 -85.5860 318° Northwest 229 264 2,800  Level FlightAware
12:02AM 37.9860 -85.6030 316° Northwest 227 261 2,800  Level FlightAware
12:02AM 38.0020 -85.6210 318° Northwest 211 243 2,800  Level FlightAware
12:03AM 38.0140 -85.6340 320° Northwest 208 239 2,800  Level FlightAware
12:03AM 38.0270 -85.6500 316° Northwest 209 241 2,800 -180 Level FlightAware
12:03AM 38.0450 -85.6710 317° Northwest 200 230 2,700 -480 Descending FlightAware
12:04AM 38.0570 -85.6840 320° Northwest 195 224 2,500 -900 Descending FlightAware
12:04AM 38.0800 -85.6950 339° North 168 193 2,000 -960 Descending FlightAware
12:04AM 38.0950 -85.7000 345° North 163 188 1,700 -840 Descending FlightAware
12:05AM 38.1070 -85.7040 345° North 149 171 1,500 -840 Descending FlightAware
12:05AM 38.1250 -85.7100 345° North 149 171 1,100 -780 Descending FlightAware
12:05AM 38.1340 -85.7130 345° North 147 169 1,000 -780 Descending FlightAware
12:06AM 38.1460 -85.7170 345° North 147 169 700 -780 Descending FlightAware
12:06AM 38.1600 -85.7220 344° North 137 158 500 -600 Descending FlightAware
12:06AM 38.1740 -85.7270 344° North 105 121 -1,200 Descending FlightAware